Time;durP1;ratioP1;P1;durP2;ratioP2;P2;SDS_P1;SDS_P2;PMS_P1;PMS_P2;Temp;Humidity;BMP_temperature;BMP_pressure;BME280_temperature;BME280_humidity;BME280_pressure;Samples;Min_cycle;Max_cycle;Signal;HPM_P1;HPM_P2
2022/06/28 00:00:39;;;;;;;8.40;1.25;;;;;;;13.91;100.00;-25458.31;5072336;28;20028;-85
2022/06/28 00:03:07;;;;;;;8.68;1.30;;;;;;;13.85;100.00;-25456.56;5074505;28;20077;-83
2022/06/28 00:05:32;;;;;;;6.47;1.60;;;;;;;13.83;100.00;-25456.13;5061242;28;20059;-84
2022/06/28 00:07:58;;;;;;;5.20;1.13;;;;;;;13.75;100.00;-25453.66;5064729;28;20052;-84
2022/06/28 00:10:24;;;;;;;6.10;1.48;;;;;;;13.75;100.00;-25453.78;5059543;28;20036;-83
2022/06/28 00:12:50;;;;;;;6.07;1.05;;;;;;;13.74;100.00;-25453.50;5055688;28;20024;-84
2022/06/28 00:18:00;;;;;;;6.65;1.10;;;;;;;13.78;100.00;-25454.66;5095237;28;20046;-85
2022/06/28 00:20:27;;;;;;;5.68;1.30;;;;;;;13.82;100.00;-25455.69;5059579;28;20457;-84
2022/06/28 00:22:54;;;;;;;8.07;1.17;;;;;;;13.77;100.00;-25454.22;5063194;28;20039;-85
2022/06/28 00:25:20;;;;;;;4.18;1.05;;;;;;;13.78;100.00;-25454.53;5074565;28;20044;-80
2022/06/28 00:27:45;;;;;;;8.80;1.73;;;;;;;13.77;100.00;-25454.22;5075898;28;20068;-80
2022/06/28 00:30:12;;;;;;;6.05;1.10;;;;;;;13.75;100.00;-25453.66;5061647;28;20038;-80
2022/06/28 00:32:38;;;;;;;4.63;1.30;;;;;;;13.77;100.00;-25454.38;5055399;28;20036;-80
2022/06/28 00:35:05;;;;;;;5.28;0.90;;;;;;;13.78;100.00;-25454.66;5063683;28;20024;-80
2022/06/28 00:37:30;;;;;;;5.82;1.02;;;;;;;13.79;100.00;-25454.97;5093170;28;20039;-80
2022/06/28 00:39:56;;;;;;;7.38;1.42;;;;;;;13.78;100.00;-25454.66;5075997;28;20024;-80
2022/06/28 00:42:22;;;;;;;5.60;1.00;;;;;;;13.79;100.00;-25454.97;5075269;28;20020;-80
2022/06/28 00:44:49;;;;;;;6.32;0.98;;;;;;;13.83;100.00;-25456.13;5074953;28;20028;-79
2022/06/28 00:47:15;;;;;;;4.80;1.27;;;;;;;13.83;100.00;-25455.97;5073052;28;20028;-80
2022/06/28 00:49:42;;;;;;;5.82;1.02;;;;;;;13.82;100.00;-25455.69;5063022;28;20028;-80
2022/06/28 00:52:09;;;;;;;4.78;1.10;;;;;;;13.78;100.00;-25454.66;5075164;28;20055;-80
2022/06/28 00:54:35;;;;;;;3.65;1.10;;;;;;;13.75;100.00;-25453.66;5074731;28;20061;-80
2022/06/28 00:57:01;;;;;;;4.07;1.00;;;;;;;13.75;100.00;-25453.66;5075445;28;20055;-80
2022/06/28 00:59:27;;;;;;;4.60;0.90;;;;;;;13.77;100.00;-25454.22;5063895;28;20538;-81
2022/06/28 01:01:52;;;;;;;8.40;1.05;;;;;;;13.72;100.00;-25452.91;5070724;28;20034;-81
2022/06/28 01:04:27;;;;;;;7.00;1.33;;;;;;;13.69;100.00;-25451.91;5072823;28;20020;-80
2022/06/28 01:06:54;;;;;;;6.00;1.10;;;;;;;13.66;100.00;-25451.16;5075210;28;20130;-86
2022/06/28 01:09:20;;;;;;;5.10;0.90;;;;;;;13.66;100.00;-25451.16;5068744;28;20032;-85
2022/06/28 01:11:45;;;;;;;5.18;1.20;;;;;;;13.64;100.00;-25450.72;5065144;28;20111;-85
2022/06/28 01:14:15;;;;;;;7.85;1.35;;;;;;;13.65;100.00;-25451.03;5069833;28;20048;-84
2022/06/28 01:16:41;;;;;;;6.03;1.00;;;;;;;13.65;100.00;-25450.88;5067538;28;20055;-80
2022/06/28 01:19:07;;;;;;;6.05;1.00;;;;;;;13.64;100.00;-25450.72;5068898;28;20048;-80
2022/06/28 01:21:35;;;;;;;5.20;1.00;;;;;;;13.63;100.00;-25450.44;5054481;28;20054;-79
2022/06/28 01:24:03;;;;;;;4.20;1.00;;;;;;;13.58;100.00;-25448.97;5064644;28;20032;-80
2022/06/28 01:26:30;;;;;;;9.18;1.20;;;;;;;13.54;100.00;-25447.81;5061037;28;20027;-80
2022/06/28 01:28:55;;;;;;;6.97;1.30;;;;;;;13.52;100.00;-25447.09;5061500;28;20044;-81
2022/06/28 01:31:22;;;;;;;4.85;1.35;;;;;;;13.49;100.00;-25446.34;5074763;28;20166;-80
2022/06/28 01:33:56;;;;;;;5.53;1.35;;;;;;;13.47;100.00;-25445.78;5074214;28;20024;-80
2022/06/28 01:36:22;;;;;;;5.22;1.30;;;;;;;13.42;100.00;-25444.31;5075172;28;20112;-79
2022/06/28 01:38:48;;;;;;;6.03;1.20;;;;;;;13.40;100.00;-25443.72;5055451;28;20099;-80
2022/06/28 01:41:32;;;;;;;5.30;1.10;;;;;;;13.36;100.00;-25442.72;5054604;28;20024;-80
2022/06/28 01:43:59;;;;;;;5.80;1.23;;;;;;;13.41;100.00;-25444.16;5061999;28;20490;-81
2022/06/28 01:46:25;;;;;;;4.68;1.10;;;;;;;13.38;100.00;-25443.16;5074689;28;20077;-80
2022/06/28 01:48:51;;;;;;;7.75;1.50;;;;;;;13.37;100.00;-25443.00;5075137;28;20024;-80
2022/06/28 01:51:17;;;;;;;4.60;1.10;;;;;;;13.36;100.00;-25442.56;5058268;28;20031;-79
2022/06/28 01:53:44;;;;;;;7.20;1.25;;;;;;;13.32;100.00;-25441.53;5057935;28;20020;-79
2022/06/28 01:56:09;;;;;;;6.22;1.10;;;;;;;13.31;100.00;-25441.09;5058217;28;20032;-80
2022/06/28 01:58:35;;;;;;;8.23;1.33;;;;;;;13.29;100.00;-25440.66;5057777;28;20024;-80
2022/06/28 02:01:00;;;;;;;4.53;1.10;;;;;;;13.27;100.00;-25440.22;5067801;28;20036;-80
2022/06/28 02:03:31;;;;;;;7.68;1.35;;;;;;;13.24;100.00;-25439.19;5074316;28;20020;-79
2022/06/28 02:05:56;;;;;;;;;;;;;;;13.22;100.00;-25438.75;5079053;28;20028;-80
2022/06/28 02:08:21;;;;;;;7.05;1.10;;;;;;;13.19;100.00;-25437.88;5096245;28;20279;-80
2022/06/28 02:10:47;;;;;;;11.23;1.30;;;;;;;13.16;100.00;-25437.00;5060559;28;20017;-80
2022/06/28 02:13:12;;;;;;;10.65;1.25;;;;;;;13.11;100.00;-25435.69;5056862;28;20021;-80
2022/06/28 02:15:38;;;;;;;7.93;0.93;;;;;;;13.09;100.00;-25435.09;5077473;28;20016;-79
2022/06/28 02:18:03;;;;;;;7.03;1.20;;;;;;;13.07;100.00;-25434.38;5077852;28;20020;-80
2022/06/28 02:20:29;;;;;;;6.22;1.10;;;;;;;13.05;100.00;-25433.94;5080833;28;20500;-80
2022/06/28 02:22:54;;;;;;;7.45;1.20;;;;;;;13.06;100.00;-25434.09;5073020;28;20028;-80
2022/06/28 02:25:20;;;;;;;7.22;1.48;;;;;;;13.01;100.00;-25432.78;5078215;28;20035;-84
2022/06/28 02:27:47;;;;;;;8.63;1.52;;;;;;;13.01;100.00;-25432.78;5077142;28;20040;-80
2022/06/28 02:30:13;;;;;;;5.10;1.00;;;;;;;13.04;100.00;-25433.50;5077737;28;20039;-80
2022/06/28 02:32:38;;;;;;;8.07;1.30;;;;;;;13.03;100.00;-25433.22;5077250;28;20468;-79
2022/06/28 02:40:32;;;;;;;6.85;1.70;;;;;;;12.95;100.00;-25430.88;5074630;28;20046;-79
2022/06/28 02:43:00;;;;;;;4.55;1.15;;;;;;;12.95;100.00;-25430.88;5056731;28;20159;-79
2022/06/28 02:45:28;;;;;;;6.93;1.40;;;;;;;12.91;100.00;-25430.00;5056244;28;20021;-80
2022/06/28 02:47:55;;;;;;;6.65;1.40;;;;;;;12.89;100.00;-25429.25;5065577;28;20059;-79
2022/06/28 02:50:21;;;;;;;5.22;1.13;;;;;;;12.87;100.00;-25428.81;5077147;28;20035;-80
2022/06/28 02:52:49;;;;;;;5.00;1.40;;;;;;;12.87;100.00;-25428.69;5094908;28;20024;-79
2022/06/28 02:55:15;;;;;;;7.15;1.67;;;;;;;12.84;100.00;-25427.94;5063916;28;20107;-80
2022/06/28 02:57:41;;;;;;;3.53;1.10;;;;;;;12.80;100.00;-25426.78;5071936;28;20051;-80
2022/06/28 03:00:10;;;;;;;4.70;1.35;;;;;;;12.77;100.00;-25425.91;5074242;28;20472;-80
2022/06/28 03:02:41;;;;;;;7.40;1.40;;;;;;;12.74;100.00;-25425.16;5056542;28;20047;-79
2022/06/28 03:05:09;;;;;;;5.53;1.20;;;;;;;12.70;100.00;-25424.00;5074617;28;20035;-80
2022/06/28 03:07:36;;;;;;;6.57;1.50;;;;;;;12.71;100.00;-25424.16;5056983;28;20095;-80
2022/06/28 03:10:02;;;;;;;7.93;1.92;;;;;;;12.70;100.00;-25424.00;5056892;28;20032;-77
2022/06/28 03:12:27;;;;;;;6.50;1.23;;;;;;;12.70;100.00;-25424.00;5074931;28;20077;-79
2022/06/28 03:14:52;;;;;;;7.10;1.40;;;;;;;12.69;100.00;-25423.56;5056053;28;20124;-79
2022/06/28 03:17:18;;;;;;;5.65;1.45;;;;;;;12.66;100.00;-25422.84;5056951;28;20202;-80
2022/06/28 03:19:44;;;;;;;8.98;1.27;;;;;;;12.69;100.00;-25423.56;5056171;28;20381;-80
2022/06/28 03:22:09;;;;;;;6.65;1.25;;;;;;;12.70;100.00;-25424.00;5057183;28;20093;-81
2022/06/28 03:24:36;;;;;;;7.95;1.55;;;;;;;12.69;100.00;-25423.72;5057113;28;20110;-81
2022/06/28 03:27:01;;;;;;;10.43;1.58;;;;;;;12.69;100.00;-25423.56;5074916;28;20028;-84
2022/06/28 03:29:27;;;;;;;7.93;1.42;;;;;;;12.68;100.00;-25423.41;5073485;28;20028;-85
2022/06/28 03:31:52;;;;;;;8.40;1.45;;;;;;;12.70;100.00;-25423.84;5055996;28;20116;-84
2022/06/28 03:34:20;;;;;;;6.95;1.77;;;;;;;12.72;100.00;-25424.44;5056648;28;20025;-84
2022/06/28 03:36:47;;;;;;;11.48;1.70;;;;;;;12.76;100.00;-25425.59;5074024;28;20052;-82
2022/06/28 03:39:13;;;;;;;10.13;1.50;;;;;;;12.78;100.00;-25426.03;5085866;28;20387;-85
2022/06/28 03:41:38;;;;;;;6.95;1.85;;;;;;;12.80;100.00;-25426.78;5063374;28;20028;-81
2022/06/28 03:44:04;;;;;;;5.53;1.40;;;;;;;12.85;100.00;-25428.09;5053885;28;20042;-81
2022/06/28 03:46:30;;;;;;;6.80;1.35;;;;;;;12.88;100.00;-25428.97;5074749;28;20050;-80
2022/06/28 03:48:55;;;;;;;10.77;1.55;;;;;;;12.88;100.00;-25429.13;5075945;28;20114;-82
2022/06/28 03:51:21;;;;;;;8.65;2.22;;;;;;;12.99;100.00;-25432.03;5075829;28;20069;-79
2022/06/28 03:53:48;;;;;;;10.68;2.67;;;;;;;13.16;100.00;-25437.00;5074949;28;20038;-79
2022/06/28 03:56:14;;;;;;;9.05;1.67;;;;;;;13.31;100.00;-25441.22;5093839;28;20028;-79
2022/06/28 03:58:39;;;;;;;9.77;1.85;;;;;;;13.29;100.00;-25440.78;5075479;28;20055;-79
2022/06/28 04:01:05;;;;;;;11.23;1.90;;;;;;;13.57;100.00;-25448.53;5065810;28;20032;-78
2022/06/28 04:03:35;;;;;;;11.50;1.90;;;;;;;14.19;100.00;-25466.34;5071821;28;20380;-79
2022/06/28 04:06:01;;;;;;;7.60;1.77;;;;;;;14.96;100.00;-25488.03;5040270;28;20020;-80
2022/06/28 04:08:26;;;;;;;6.90;1.98;;;;;;;15.79;100.00;-25511.63;5056052;28;20429;-80
2022/06/28 04:13:43;;;;;;;8.63;1.58;;;;;;;16.98;100.00;-25545.00;5075755;28;20357;-80
2022/06/28 04:16:09;;;;;;;8.43;1.80;;;;;;;17.45;100.00;-21264.88;5053891;28;20024;-81
2022/06/28 04:18:35;;;;;;;6.72;1.52;;;;;;;18.26;100.00;-8030.31;5053173;28;20116;-81
2022/06/28 04:21:01;;;;;;;8.93;2.17;;;;;;;18.45;100.00;14276.03;5054435;28;20103;-79
2022/06/28 04:23:27;;;;;;;9.43;1.80;;;;;;;18.80;100.00;33041.69;5069811;28;20369;-79
2022/06/28 04:25:53;;;;;;;8.27;1.67;;;;;;;19.64;100.00;62449.31;5063124;28;20107;-79
2022/06/28 04:28:19;;;;;;;10.27;2.00;;;;;;;20.24;100.00;128130.56;5054663;28;20136;-78
2022/06/28 04:30:47;;;;;;;7.32;2.10;;;;;;;20.68;100.00;147922.47;5040828;28;20045;-79
2022/06/28 04:33:13;;;;;;;7.55;1.65;;;;;;;20.89;100.00;147973.72;5038722;28;20086;-79
2022/06/28 04:35:40;;;;;;;9.43;1.77;;;;;;;21.53;100.00;148133.97;5070336;28;20213;-79
2022/06/28 04:38:05;;;;;;;9.25;1.67;;;;;;;21.32;100.00;148082.66;5075153;28;20032;-79
2022/06/28 04:40:30;;;;;;;7.63;1.73;;;;;;;21.38;100.00;148095.47;5073050;28;20025;-79
2022/06/28 04:42:58;;;;;;;8.07;1.80;;;;;;;22.15;100.00;148287.88;5054763;28;20093;-79
2022/06/28 04:45:23;;;;;;;12.23;2.22;;;;;;;22.50;100.00;148376.44;5055441;28;20052;-80
2022/06/28 04:47:49;;;;;;;11.73;2.00;;;;;;;22.42;100.00;148355.91;5055969;28;20144;-79
2022/06/28 04:50:14;;;;;;;8.63;2.00;;;;;;;22.32;100.00;148330.25;5078437;28;20447;-80
2022/06/28 04:52:40;;;;;;;11.23;2.33;;;;;;;22.97;100.00;148493.19;5074638;28;20055;-80
2022/06/28 04:55:06;;;;;;;8.20;1.90;;;;;;;23.94;100.00;148735.91;5071765;28;20016;-79
2022/06/28 04:57:32;;;;;;;10.10;2.15;;;;;;;23.50;100.00;148624.16;5068365;28;20032;-78
2022/06/28 04:59:58;;;;;;;9.02;1.98;;;;;;;22.89;100.00;148473.94;5081738;28;20090;-77
2022/06/28 05:02:24;;;;;;;9.68;2.30;;;;;;;23.32;100.00;148580.53;5067375;28;20037;-75
2022/06/28 05:04:51;;;;;;;10.05;2.80;;;;;;;22.93;100.00;148482.91;5066425;28;20400;-80
2022/06/28 05:07:17;;;;;;;9.98;2.33;;;;;;;22.87;100.00;148468.81;5054355;28;20056;-79
2022/06/28 05:09:42;;;;;;;10.20;2.13;;;;;;;22.88;100.00;148470.09;5071716;28;20028;-80
2022/06/28 05:12:08;;;;;;;9.38;2.33;;;;;;;23.05;100.00;148513.69;5065611;28;20032;-81
2022/06/28 05:14:35;;;;;;;11.15;2.22;;;;;;;23.20;100.00;148549.72;5073211;28;20051;-80
2022/06/28 05:17:01;;;;;;;10.70;2.55;;;;;;;23.94;100.00;148734.59;5050795;28;20025;-81
2022/06/28 05:19:27;;;;;;;8.85;1.92;;;;;;;22.79;100.00;148448.25;5034792;28;20040;-81
2022/06/28 05:21:53;;;;;;;8.98;2.10;;;;;;;21.44;100.00;148112.16;5052633;28;20119;-79
2022/06/28 05:24:19;;;;;;;9.10;2.28;;;;;;;20.14;100.00;147786.63;5056094;28;20068;-81
2022/06/28 05:26:44;;;;;;;11.60;2.50;;;;;;;19.86;100.00;147717.47;5046125;28;20067;-79
2022/06/28 05:29:10;;;;;;;9.57;2.50;;;;;;;18.79;100.00;147451.09;5060057;28;20052;-81
2022/06/28 05:31:38;;;;;;;10.10;2.72;;;;;;;18.35;100.00;147342.34;5078316;28;20500;-80
2022/06/28 05:34:11;;;;;;;13.57;2.72;;;;;;;17.97;100.00;147246.41;5077923;28;20069;-77
2022/06/28 05:36:40;;;;;;;10.52;2.70;;;;;;;17.80;100.00;147205.41;5058166;28;20028;-78
2022/06/28 05:39:06;;;;;;;13.15;2.58;;;;;;;17.90;100.00;147229.81;5068124;28;20069;-80
2022/06/28 05:41:32;;;;;;;10.52;2.47;;;;;;;17.86;100.00;147219.50;5063162;28;20035;-78
2022/06/28 05:44:01;;;;;;;10.70;2.92;;;;;;;18.28;100.00;147324.41;5057952;28;20021;-80
2022/06/28 05:46:26;;;;;;;15.50;3.17;;;;;;;19.02;100.00;147510.00;5058234;28;20068;-80
2022/06/28 05:48:52;;;;;;;15.95;2.67;;;;;;;19.75;100.00;147690.53;5061785;28;20028;-79
2022/06/28 05:51:17;;;;;;;14.32;2.83;;;;;;;19.86;100.00;147717.47;5074281;28;20012;-80
2022/06/28 05:53:43;;;;;;;16.20;3.00;;;;;;;18.93;100.00;147486.97;5062469;28;20036;-82
2022/06/28 05:56:08;;;;;;;11.57;2.58;;;;;;;18.57;100.00;147396.09;5056987;28;20035;-80
2022/06/28 05:58:33;;;;;;;11.52;2.60;;;;;;;18.27;100.00;147321.84;5057780;28;20036;-79
2022/06/28 06:00:59;;;;;;;13.45;2.70;;;;;;;18.09;100.00;147277.09;5057611;28;20492;-80
2022/06/28 06:03:28;;;;;;;13.57;2.85;;;;;;;18.03;100.00;147261.75;5058215;28;20024;-80
2022/06/28 06:05:54;;;;;;;13.65;2.92;;;;;;;18.13;100.00;147287.31;5057841;28;20024;-78
2022/06/28 06:08:20;;;;;;;13.85;2.67;;;;;;;18.12;100.00;147286.03;5094160;28;20028;-77
2022/06/28 06:10:45;;;;;;;11.48;2.83;;;;;;;17.91;100.00;147233.63;5074954;28;20082;-78
2022/06/28 06:13:14;;;;;;;10.23;2.90;;;;;;;17.89;100.00;147227.22;5076608;28;20031;-77
2022/06/28 06:15:39;;;;;;;13.00;2.58;;;;;;;18.14;100.00;147289.88;5077392;28;20028;-79
2022/06/28 06:18:05;;;;;;;16.58;3.53;;;;;;;18.33;100.00;147335.94;5093699;28;20214;-77
2022/06/28 06:20:31;;;;;;;12.93;3.08;;;;;;;18.43;100.00;147362.81;5076839;28;20504;-78
2022/06/28 06:22:56;;;;;;;12.32;2.75;;;;;;;18.27;100.00;147323.16;5085079;28;20104;-77
2022/06/28 06:25:21;;;;;;;12.93;2.55;;;;;;;18.32;100.00;147333.34;5056297;28;20033;-77
2022/06/28 06:27:47;;;;;;;13.98;2.90;;;;;;;18.39;100.00;147351.28;5065952;28;20044;-77
2022/06/28 06:30:13;;;;;;;13.55;2.75;;;;;;;18.43;100.00;147361.53;5094842;28;20322;-80
2022/06/28 06:32:39;;;;;;;15.10;2.85;;;;;;;18.10;100.00;147279.63;5076348;28;20384;-78
2022/06/28 06:35:05;;;;;;;12.00;2.55;;;;;;;17.80;100.00;147204.16;5066458;28;20024;-77
2022/06/28 06:37:32;;;;;;;14.30;3.40;;;;;;;17.82;100.00;147210.56;5072124;28;20040;-78
2022/06/28 06:39:57;;;;;;;11.23;2.63;;;;;;;17.75;100.00;147192.66;5056470;28;20024;-78
2022/06/28 06:42:23;;;;;;;15.20;3.25;;;;;;;18.00;100.00;147255.34;5056940;28;20388;-78
2022/06/28 06:44:48;;;;;;;12.63;2.67;;;;;;;18.71;100.00;147430.63;5056767;28;20123;-80
2022/06/28 06:47:13;;;;;;;12.48;2.58;;;;;;;19.07;100.00;147520.25;5056059;28;20435;-78
2022/06/28 06:49:39;;;;;;;13.65;2.95;;;;;;;19.13;100.00;147536.88;5056123;28;20028;-77
2022/06/28 06:52:05;;;;;;;15.18;3.17;;;;;;;18.94;100.00;147489.53;5056455;28;20016;-78
2022/06/28 06:54:30;;;;;;;11.35;2.70;;;;;;;19.19;100.00;147550.97;5056428;28;20074;-78
2022/06/28 06:56:55;;;;;;;18.63;3.45;;;;;;;19.59;100.00;147649.53;5056070;28;20033;-78
2022/06/28 06:59:21;;;;;;;13.73;3.05;;;;;;;20.19;100.00;147799.44;5056373;28;20082;-77
2022/06/28 07:01:46;;;;;;;12.20;2.53;;;;;;;20.35;100.00;147840.38;5071870;28;20058;-79
2022/06/28 07:04:14;;;;;;;14.07;2.78;;;;;;;20.17;100.00;147794.31;5055652;28;20381;-76
2022/06/28 07:06:41;;;;;;;11.77;2.97;;;;;;;20.08;100.00;147773.78;5056066;28;20434;-77
2022/06/28 07:09:07;;;;;;;13.40;2.97;;;;;;;19.71;100.00;147681.53;5055585;28;20025;-78
2022/06/28 07:11:34;;;;;;;10.98;2.58;;;;;;;21.30;100.00;148076.22;5055517;28;20017;-77
2022/06/28 07:14:00;;;;;;;13.63;2.58;;;;;;;21.83;100.00;148209.63;5055492;28;20021;-78
2022/06/28 07:16:26;;;;;;;12.20;2.05;;;;;;;23.19;100.00;148547.13;5073577;28;20020;-78
2022/06/28 07:18:51;;;;;;;11.05;2.28;;;;;;;22.55;100.00;148389.25;5055309;28;20132;-78
2022/06/28 07:21:17;;;;;;;11.18;2.50;;;;;;;22.59;100.00;148398.19;5054996;28;20032;-75
2022/06/28 07:23:44;;;;;;;13.38;2.58;;;;;;;23.58;100.00;148644.69;5054833;28;20028;-77
2022/06/28 07:26:10;;;;;;;12.77;2.70;;;;;;;23.82;100.00;148705.06;5055043;28;20364;-77
2022/06/28 07:28:35;;;;;;;14.45;2.60;;;;;;;24.57;100.00;148891.34;5054317;28;20040;-77
2022/06/28 07:31:01;;;;;;;12.65;2.40;;;;;;;23.36;100.00;148589.50;5054869;28;20024;-77
2022/06/28 07:33:27;;;;;;;7.43;1.90;;;;;;;22.46;100.00;148366.16;5054784;28;20024;-77
2022/06/28 07:35:53;;;;;;;9.90;2.13;;;;;;;22.51;100.00;148379.00;5072765;28;20487;-78
2022/06/28 07:38:18;;;;;;;9.85;2.20;;;;;;;23.22;100.00;148556.09;5055023;28;20028;-81
2022/06/28 07:40:43;;;;;;;9.85;2.33;;;;;;;24.99;100.00;148998.00;5055498;28;20434;-82
2022/06/28 07:43:09;;;;;;;8.75;2.05;;;;;;;24.51;100.00;148878.44;5055285;28;20539;-81
2022/06/28 07:45:36;;;;;;;9.10;2.17;;;;;;;22.09;100.00;148273.75;5054138;28;20020;-81
2022/06/28 07:48:03;;;;;;;11.18;2.28;;;;;;;22.48;100.00;148370.00;5055863;28;20036;-76
2022/06/28 07:53:14;;;;;;;12.98;2.53;;;;;;;23.44;100.00;148610.03;5073014;28;20089;-79
2022/06/28 07:55:40;;;;;;;8.15;2.00;;;;;;;23.96;100.00;148739.78;5054482;28;20062;-79
2022/06/28 07:58:05;;;;;;;9.15;2.20;;;;;;;23.91;100.00;148728.22;5072518;28;20540;-81
2022/06/28 08:00:31;;;;;;;7.90;1.70;;;;;;;23.74;100.00;148684.47;5054585;28;20085;-78
2022/06/28 08:03:03;;;;;;;10.00;2.03;;;;;;;23.99;100.00;148748.75;5072699;28;20413;-74
2022/06/28 08:05:28;;;;;;;6.65;1.80;;;;;;;23.67;100.00;148669.06;5054915;28;20119;-80
2022/06/28 08:07:54;;;;;;;6.90;1.90;;;;;;;22.79;100.00;148448.25;5072678;28;20121;-79
2022/06/28 08:10:19;;;;;;;7.78;1.55;;;;;;;24.44;100.00;148860.50;5054893;28;20037;-78
2022/06/28 08:12:46;;;;;;;9.88;2.25;;;;;;;24.66;100.00;148914.50;5054406;28;20035;-82
2022/06/28 08:15:12;;;;;;;10.07;2.03;;;;;;;23.98;100.00;148744.91;5055190;28;20062;-78
2022/06/28 08:17:38;;;;;;;10.07;2.05;;;;;;;23.18;100.00;148544.56;5054352;28;20024;-78
2022/06/28 08:20:04;;;;;;;11.80;2.33;;;;;;;23.45;100.00;148612.59;5054545;28;20417;-79
2022/06/28 08:22:29;;;;;;;8.98;2.15;;;;;;;24.53;100.00;148882.31;5054266;28;20028;-78
2022/06/28 08:24:55;;;;;;;11.27;2.22;;;;;;;24.11;100.00;148778.25;5072234;28;20028;-77
2022/06/28 08:27:20;;;;;;;9.35;2.10;;;;;;;24.14;100.00;148785.97;5054150;28;20045;-80
2022/06/28 08:29:46;;;;;;;9.05;2.08;;;;;;;24.96;100.00;148990.28;5054433;28;20098;-79
2022/06/28 08:32:12;;;;;;;7.47;2.20;;;;;;;25.74;100.00;149184.41;5054568;28;20024;-81
2022/06/28 08:34:40;;;;;;;8.30;1.80;;;;;;;24.98;100.00;148995.41;5054264;28;20021;-78
2022/06/28 08:37:06;;;;;;;7.38;1.73;;;;;;;25.89;100.00;149221.72;5069745;28;20028;-78
2022/06/28 08:39:32;;;;;;;7.03;2.00;;;;;;;25.67;100.00;149166.41;5052305;28;20036;-80
2022/06/28 08:42:02;;;;;;;8.45;2.15;;;;;;;25.26;100.00;149066.13;5053658;28;20017;-78
2022/06/28 08:44:35;;;;;;;7.28;1.90;;;;;;;25.27;100.00;149067.41;5072482;28;20016;-78
2022/06/28 08:47:03;;;;;;;8.75;1.98;;;;;;;25.52;100.00;149129.16;5054441;28;20119;-76
2022/06/28 08:49:31;;;;;;;6.65;1.70;;;;;;;25.64;100.00;149160.00;5054029;28;20024;-79
2022/06/28 08:51:57;;;;;;;9.63;1.67;;;;;;;25.20;100.00;149050.69;5054866;28;20637;-79
2022/06/28 08:54:24;;;;;;;7.55;2.28;;;;;;;24.33;100.00;148832.19;5054380;28;20066;-77
2022/06/28 08:56:50;;;;;;;9.85;2.03;;;;;;;23.58;100.00;148645.94;5073073;28;20720;-80
2022/06/28 08:59:16;;;;;;;9.75;1.88;;;;;;;23.81;100.00;148702.47;5057596;28;20039;-80
2022/06/28 09:01:42;;;;;;;9.45;1.77;;;;;;;24.17;100.00;148792.41;5058142;28;20032;-79
2022/06/28 09:04:09;;;;;;;6.82;1.70;;;;;;;24.10;100.00;148774.41;5076591;28;20029;-79
2022/06/28 09:06:35;;;;;;;6.65;1.70;;;;;;;24.67;100.00;148918.34;5058730;28;20082;-78
2022/06/28 09:09:00;;;;;;;7.35;2.30;;;;;;;25.17;100.00;149041.69;5058682;28;20032;-79
2022/06/28 09:11:42;;;;;;;8.07;1.75;;;;;;;24.61;100.00;148901.63;5058639;28;20021;-79
2022/06/28 09:14:29;;;;;;;6.65;1.80;;;;;;;25.32;100.00;149080.28;5057720;28;20013;-80
2022/06/28 09:16:56;;;;;;;9.88;2.13;;;;;;;24.69;100.00;148922.22;5058047;28;20027;-79
2022/06/28 09:19:38;;;;;;;6.35;2.00;;;;;;;25.23;100.00;149058.41;5057217;28;20128;-81
2022/06/28 09:22:04;;;;;;;7.38;1.83;;;;;;;25.35;100.00;149086.72;5058238;28;20165;-80
2022/06/28 09:24:32;;;;;;;8.45;1.70;;;;;;;24.76;100.00;148940.16;5057722;28;20507;-79
2022/06/28 09:27:07;;;;;;;9.30;1.90;;;;;;;23.20;100.00;148551.00;5058011;28;20040;-80
2022/06/28 09:29:48;;;;;;;7.22;1.77;;;;;;;22.99;100.00;148497.03;5075287;28;20047;-79
2022/06/28 09:32:14;;;;;;;5.13;1.55;;;;;;;22.62;100.00;148404.63;5075993;28;20031;-79
2022/06/28 09:35:16;;;;;;;8.40;1.83;;;;;;;22.91;100.00;148477.78;5057288;28;20032;-79
2022/06/28 09:37:51;;;;;;;5.85;1.38;;;;;;;23.87;100.00;148716.66;4996950;28;20494;-80
2022/06/28 09:40:18;;;;;;;6.53;1.60;;;;;;;24.38;100.00;148845.09;5049608;28;20044;-80
2022/06/28 09:43:06;;;;;;;9.25;1.80;;;;;;;24.47;100.00;148868.22;5075233;28;20518;-79
2022/06/28 09:45:33;;;;;;;6.00;1.63;;;;;;;25.13;100.00;149032.69;5075104;28;20453;-80
2022/06/28 09:47:59;;;;;;;6.00;1.80;;;;;;;25.33;100.00;149082.88;5057979;28;20032;-80
2022/06/28 09:50:24;;;;;;;7.90;1.50;;;;;;;24.90;100.00;148974.84;5075161;28;20040;-79
2022/06/28 09:52:51;;;;;;;7.63;1.77;;;;;;;24.40;100.00;148848.94;5057116;28;20037;-79
2022/06/28 09:55:18;;;;;;;6.35;1.40;;;;;;;24.15;100.00;148787.28;5075666;28;20020;-79
2022/06/28 09:57:45;;;;;;;7.93;1.40;;;;;;;23.62;100.00;148656.25;5057480;28;20020;-81
2022/06/28 10:00:16;;;;;;;7.32;1.50;;;;;;;23.78;100.00;148696.03;5075440;28;20029;-83
2022/06/28 10:02:48;;;;;;;6.70;1.48;;;;;;;23.57;100.00;148642.09;5057105;28;20033;-81
2022/06/28 10:05:13;;;;;;;7.47;1.35;;;;;;;23.82;100.00;148705.06;5057388;28;20153;-78
2022/06/28 10:07:40;;;;;;;7.95;1.55;;;;;;;23.89;100.00;148723.06;5074833;28;20085;-78
2022/06/28 10:10:08;;;;;;;5.22;1.20;;;;;;;23.82;100.00;148705.06;5057159;28;20032;-80
2022/06/28 10:15:23;;;;;;;4.70;1.15;;;;;;;23.82;100.00;148705.06;5075760;28;20063;-78
2022/06/28 10:18:03;;;;;;;5.72;1.33;;;;;;;23.72;100.00;148680.63;5057194;28;20453;-78
2022/06/28 10:20:32;;;;;;;5.72;1.58;;;;;;;23.66;100.00;148666.53;5057222;28;20031;-80
2022/06/28 10:23:26;;;;;;;5.85;1.40;;;;;;;24.02;100.00;148756.44;5057083;28;20031;-81
2022/06/28 10:26:15;;;;;;;5.97;1.40;;;;;;;23.09;100.00;148524.03;5056851;28;20028;-79
2022/06/28 10:28:45;;;;;;;7.38;1.75;;;;;;;23.06;100.00;148515.03;5056886;28;20048;-79
2022/06/28 10:31:25;;;;;;;6.65;1.35;;;;;;;22.99;100.00;148497.03;5057526;28;20024;-81
2022/06/28 10:33:58;;;;;;;5.47;1.20;;;;;;;23.23;100.00;148558.69;5057315;28;20036;-82
2022/06/28 10:36:26;;;;;;;7.22;1.20;;;;;;;23.26;100.00;148565.13;5075524;28;20085;-82
2022/06/28 10:39:00;;;;;;;4.22;0.90;;;;;;;23.27;100.00;148568.97;5056929;28;20021;-82
2022/06/28 10:41:42;;;;;;;4.65;1.65;;;;;;;23.56;100.00;148639.56;5057267;28;20036;-82
2022/06/28 10:44:11;;;;;;;3.33;1.33;;;;;;;23.88;100.00;148719.19;5057354;28;20060;-81
2022/06/28 10:46:37;;;;;;;7.70;1.00;;;;;;;23.72;100.00;148679.34;5057250;28;20059;-83
2022/06/28 10:49:11;;;;;;;3.55;0.93;;;;;;;23.71;100.00;148678.09;5074247;28;20340;-82
2022/06/28 10:52:01;;;;;;;4.47;1.05;;;;;;;23.76;100.00;148689.66;5056895;28;20097;-82
2022/06/28 10:54:26;;;;;;;3.65;1.40;;;;;;;24.04;100.00;148760.31;5074976;28;20085;-81
2022/06/28 10:56:52;;;;;;;8.18;1.15;;;;;;;23.37;100.00;148592.03;5056372;28;20024;-80
2022/06/28 10:59:19;;;;;;;4.20;1.17;;;;;;;23.66;100.00;148666.53;5056164;28;20028;-79
2022/06/28 11:01:47;;;;;;;5.00;1.30;;;;;;;23.70;100.00;148674.25;5074279;28;20028;-82
2022/06/28 11:04:21;;;;;;;6.28;1.50;;;;;;;23.92;100.00;148730.75;5075096;28;20024;-81
2022/06/28 11:06:49;;;;;;;5.90;1.38;;;;;;;23.07;100.00;148517.56;5055334;28;20031;-79
2022/06/28 11:09:18;;;;;;;6.93;1.40;;;;;;;23.55;100.00;148638.25;5055192;28;20079;-81
2022/06/28 11:12:05;;;;;;;5.47;1.10;;;;;;;22.83;100.00;148457.25;5056209;28;20021;-80
2022/06/28 11:14:43;;;;;;;3.55;0.85;;;;;;;23.16;100.00;148540.72;5056283;28;20029;-79
2022/06/28 11:17:19;;;;;;;4.57;0.90;;;;;;;23.41;100.00;148602.31;5056473;28;20033;-81
2022/06/28 11:19:56;;;;;;;4.32;0.80;;;;;;;23.19;100.00;148547.13;5056071;28;20115;-80
2022/06/28 11:22:27;;;;;;;5.78;1.10;;;;;;;23.46;100.00;148615.16;5056054;28;20119;-82
2022/06/28 11:24:54;;;;;;;5.93;1.48;;;;;;;23.57;100.00;148643.41;5056368;28;20031;-81
2022/06/28 11:27:20;;;;;;;5.60;1.20;;;;;;;23.66;100.00;148666.53;5055558;28;20524;-80
2022/06/28 11:29:50;;;;;;;5.13;1.23;;;;;;;23.84;100.00;148710.22;5056262;28;20106;-79
2022/06/28 11:32:24;;;;;;;7.10;1.17;;;;;;;23.32;100.00;148580.53;5056138;28;20031;-80